createdAt,value
2022-10-26T00:01:11.169Z,3.30
2022-10-26T00:03:39.787Z,2.17
2022-10-26T00:06:15.666Z,3.43
2022-10-26T00:08:43.007Z,2.20
2022-10-26T00:11:10.934Z,6.13
2022-10-26T00:13:38.634Z,4.50
2022-10-26T00:16:17.687Z,3.07
2022-10-26T00:18:44.666Z,3.83
2022-10-26T00:21:12.024Z,2.63
2022-10-26T00:23:38.888Z,1.93
2022-10-26T00:26:06.508Z,3.33
2022-10-26T00:28:33.476Z,3.13
2022-10-26T00:31:02.295Z,3.00
2022-10-26T00:33:30.176Z,8.60
2022-10-26T00:35:57.212Z,3.07
2022-10-26T00:38:24.201Z,4.00
2022-10-26T00:40:51.098Z,3.27
2022-10-26T00:43:26.735Z,1.50
2022-10-26T00:45:55.719Z,1.27
2022-10-26T00:48:26.963Z,4.83
2022-10-26T00:50:56.484Z,3.23
2022-10-26T00:53:23.362Z,2.57
2022-10-26T00:55:52.512Z,2.23
2022-10-26T00:58:21.526Z,3.10
2022-10-26T01:00:49.828Z,4.90
2022-10-26T01:03:17.549Z,2.27
2022-10-26T01:05:47.359Z,2.27
2022-10-26T01:08:17.018Z,2.70
2022-10-26T01:10:44.447Z,1.80
2022-10-26T01:13:13.137Z,2.13
2022-10-26T01:16:08.091Z,1.30
2022-10-26T01:18:50.732Z,1.27
2022-10-26T01:21:38.728Z,1.27
2022-10-26T01:24:14.423Z,0.70
2022-10-26T01:26:59.970Z,0.97
2022-10-26T01:29:38.830Z,1.23
2022-10-26T01:32:15.895Z,1.23
2022-10-26T01:34:58.126Z,0.80
2022-10-26T01:37:31.920Z,1.33
2022-10-26T01:40:16.308Z,0.60
2022-10-26T01:42:48.243Z,1.00
2022-10-26T01:45:16.313Z,0.50
2022-10-26T01:47:45.087Z,0.70
2022-10-26T01:50:12.737Z,0.40
2022-10-26T01:52:48.832Z,1.40
2022-10-26T01:55:41.501Z,1.40
2022-10-26T01:58:18.362Z,1.40
2022-10-26T02:00:58.912Z,1.37
2022-10-26T02:04:00.988Z,1.07
2022-10-26T02:06:51.810Z,1.00
2022-10-26T02:09:28.607Z,0.77
2022-10-26T02:11:56.732Z,1.57
2022-10-26T02:14:54.871Z,1.00
2022-10-26T02:17:47.486Z,1.10
2022-10-26T02:20:31.813Z,1.97
2022-10-26T02:23:04.101Z,2.57
2022-10-26T02:25:34.162Z,2.20
2022-10-26T02:28:05.978Z,1.30
2022-10-26T02:30:35.108Z,0.57
2022-10-26T02:33:04.682Z,0.80
2022-10-26T02:35:34.281Z,0.70
2022-10-26T02:38:05.437Z,1.07
2022-10-26T02:40:33.565Z,1.10
2022-10-26T02:43:05.581Z,1.17
2022-10-26T02:45:38.648Z,0.80
2022-10-26T02:48:06.659Z,0.80
2022-10-26T02:50:44.886Z,1.70
2022-10-26T02:53:27.735Z,1.70
2022-10-26T02:55:54.951Z,3.93
2022-10-26T02:58:29.402Z,2.37
2022-10-26T03:00:57.066Z,2.83
2022-10-26T03:03:24.153Z,1.97
2022-10-26T03:05:51.210Z,3.40
2022-10-26T03:08:18.047Z,5.13
2022-10-26T03:10:45.798Z,4.03
2022-10-26T03:13:13.963Z,6.67
2022-10-26T03:15:41.137Z,2.53
2022-10-26T03:18:08.311Z,3.83
2022-10-26T03:20:35.904Z,2.37
2022-10-26T03:23:02.745Z,3.17
2022-10-26T03:25:29.673Z,1.80
2022-10-26T03:28:01.499Z,4.53
2022-10-26T03:30:29.718Z,3.23
2022-10-26T03:32:57.033Z,3.77
2022-10-26T03:35:24.343Z,5.23
2022-10-26T03:37:51.549Z,2.17
2022-10-26T03:40:18.645Z,1.47
2022-10-26T03:42:45.598Z,1.70
2022-10-26T03:45:12.504Z,2.40
2022-10-26T03:47:49.488Z,1.33
2022-10-26T03:50:19.421Z,1.17
2022-10-26T03:52:48.230Z,1.20
2022-10-26T03:55:15.837Z,1.33
2022-10-26T03:57:44.167Z,0.70
2022-10-26T04:00:12.790Z,0.83
2022-10-26T04:02:39.546Z,0.90
2022-10-26T04:05:06.931Z,1.73
2022-10-26T04:07:33.755Z,1.53
2022-10-26T04:10:01.545Z,2.03
2022-10-26T04:12:28.262Z,1.67
2022-10-26T04:14:57.894Z,3.30
2022-10-26T04:17:25.167Z,6.20
2022-10-26T04:19:51.982Z,5.00
2022-10-26T04:22:18.812Z,3.93
2022-10-26T04:24:45.562Z,6.33
2022-10-26T04:27:12.332Z,3.00
2022-10-26T04:29:39.103Z,3.23
2022-10-26T04:32:07.310Z,4.00
2022-10-26T04:34:34.052Z,4.97
2022-10-26T04:37:00.918Z,5.37
2022-10-26T04:39:27.723Z,3.33
2022-10-26T04:41:54.783Z,3.33
2022-10-26T04:44:21.554Z,2.80
2022-10-26T04:46:48.362Z,5.13
2022-10-26T04:49:15.586Z,5.07
2022-10-26T04:51:42.447Z,6.70
2022-10-26T04:54:09.404Z,3.07
2022-10-26T04:56:36.363Z,5.90
2022-10-26T04:59:03.795Z,2.40
2022-10-26T05:01:32.048Z,1.53
2022-10-26T05:03:59.096Z,1.57
2022-10-26T05:06:25.969Z,1.73
2022-10-26T05:08:52.768Z,1.37
2022-10-26T05:11:19.550Z,4.67
2022-10-26T05:13:48.078Z,2.23
2022-10-26T05:16:16.351Z,1.80
2022-10-26T05:18:43.087Z,1.60
2022-10-26T05:21:09.940Z,3.00
2022-10-26T05:23:36.675Z,4.00
2022-10-26T05:26:04.867Z,3.93
2022-10-26T05:28:31.675Z,3.57
2022-10-26T05:30:58.921Z,3.83
2022-10-26T05:33:25.751Z,3.50
2022-10-26T05:35:55.553Z,3.20
2022-10-26T05:38:22.424Z,6.00
2022-10-26T05:40:51.896Z,2.87
2022-10-26T05:43:20.610Z,3.10
2022-10-26T05:45:47.637Z,1.80
2022-10-26T05:48:14.456Z,8.60
2022-10-26T05:50:41.227Z,7.73
2022-10-26T05:53:08.322Z,4.63
2022-10-26T05:55:35.510Z,7.47
2022-10-26T05:58:02.642Z,6.53
2022-10-26T06:00:30.469Z,8.23
2022-10-26T06:03:06.260Z,7.67
2022-10-26T06:05:55.877Z,8.07
2022-10-26T06:08:25.364Z,3.90
2022-10-26T06:10:54.017Z,4.03
2022-10-26T06:13:21.557Z,7.40
2022-10-26T06:16:12.908Z,3.67
2022-10-26T06:19:01.023Z,3.50
2022-10-26T06:21:47.750Z,3.40
2022-10-26T06:24:52.511Z,5.93
2022-10-26T06:27:54.899Z,4.17
2022-10-26T06:30:23.356Z,6.67
2022-10-26T06:33:01.119Z,3.70
2022-10-26T06:35:41.690Z,5.10
2022-10-26T06:38:15.153Z,4.80
2022-10-26T06:40:45.782Z,7.37
2022-10-26T06:43:20.424Z,4.60
2022-10-26T06:45:51.158Z,3.23
2022-10-26T06:48:25.375Z,3.33
2022-10-26T06:50:53.599Z,2.80
2022-10-26T06:53:29.248Z,6.27
2022-10-26T06:55:59.200Z,6.73
2022-10-26T06:58:30.955Z,5.13
2022-10-26T07:00:58.377Z,5.63
2022-10-26T07:03:25.349Z,7.67
2022-10-26T07:05:52.303Z,6.10
2022-10-26T07:08:19.412Z,7.97
2022-10-26T07:10:47.287Z,3.17
2022-10-26T07:13:14.459Z,3.17
2022-10-26T07:15:42.867Z,3.87
2022-10-26T07:18:10.007Z,7.63
2022-10-26T07:20:41.524Z,7.53
2022-10-26T07:23:12.760Z,5.50
2022-10-26T07:25:40.674Z,5.33
2022-10-26T07:28:10.513Z,5.43
2022-10-26T07:30:39.381Z,10.70
2022-10-26T07:33:11.846Z,7.37
2022-10-26T07:35:39.181Z,8.87
2022-10-26T07:38:06.543Z,8.17
2022-10-26T07:40:33.441Z,5.73
2022-10-26T07:43:01.082Z,7.07
2022-10-26T07:45:29.726Z,5.63
2022-10-26T07:47:57.519Z,7.17
2022-10-26T07:50:24.593Z,5.93
2022-10-26T07:52:51.782Z,7.30
2022-10-26T07:55:19.226Z,6.67
2022-10-26T07:57:48.543Z,3.90
2022-10-26T08:00:21.013Z,4.57
2022-10-26T08:02:47.849Z,3.53
2022-10-26T08:05:14.683Z,5.30
2022-10-26T08:07:46.084Z,4.33
2022-10-26T08:10:14.122Z,3.50
2022-10-26T08:12:42.427Z,3.03
2022-10-26T08:15:10.362Z,5.23
2022-10-26T08:17:37.316Z,4.47
2022-10-26T08:20:04.486Z,4.83
2022-10-26T08:22:31.840Z,4.87
2022-10-26T08:24:58.605Z,5.80
2022-10-26T08:27:37.717Z,5.07
2022-10-26T08:30:04.919Z,4.47
2022-10-26T08:32:31.729Z,4.73
2022-10-26T08:34:58.500Z,3.60
2022-10-26T08:37:26.634Z,8.53
2022-10-26T08:39:55.300Z,3.50
2022-10-26T08:42:29.802Z,3.83
2022-10-26T08:45:05.592Z,5.00
2022-10-26T08:47:43.182Z,5.80
2022-10-26T08:50:26.957Z,2.80
2022-10-26T08:53:17.166Z,2.87
2022-10-26T08:55:50.122Z,4.47
2022-10-26T08:58:22.896Z,4.73
2022-10-26T09:00:51.477Z,4.47
2022-10-26T09:03:19.142Z,5.90
2022-10-26T09:05:59.436Z,2.90
2022-10-26T09:08:35.460Z,2.67
2022-10-26T09:11:40.018Z,3.40
2022-10-26T09:14:28.709Z,3.90
2022-10-26T09:17:12.460Z,5.30
2022-10-26T09:19:59.979Z,3.67
2022-10-26T09:22:55.952Z,4.30
2022-10-26T09:25:25.207Z,3.67
2022-10-26T09:28:00.958Z,3.47
2022-10-26T09:30:28.420Z,4.90
2022-10-26T09:33:15.304Z,4.10
2022-10-26T09:35:56.940Z,3.47
2022-10-26T09:38:30.641Z,7.90
2022-10-26T09:41:21.008Z,4.77
2022-10-26T09:43:50.663Z,3.40
2022-10-26T09:46:23.041Z,8.33
2022-10-26T09:48:54.018Z,8.00
2022-10-26T09:51:20.982Z,4.93
2022-10-26T09:53:48.716Z,7.50
2022-10-26T09:56:16.269Z,4.93
2022-10-26T09:58:47.361Z,4.47
2022-10-26T10:01:38.488Z,4.17
2022-10-26T10:04:20.123Z,5.17
2022-10-26T10:06:52.110Z,7.43
2022-10-26T10:09:21.254Z,5.40
2022-10-26T10:11:55.411Z,5.70
2022-10-26T10:14:28.558Z,7.17
2022-10-26T10:17:04.975Z,5.40
2022-10-26T10:19:35.613Z,9.73
2022-10-26T10:22:12.301Z,5.97
2022-10-26T10:25:00.937Z,9.50
2022-10-26T10:27:29.465Z,7.10
2022-10-26T10:30:01.350Z,7.67
2022-10-26T10:32:35.516Z,11.50
2022-10-26T10:35:25.401Z,4.27
2022-10-26T10:37:52.725Z,5.80
2022-10-26T10:40:25.976Z,5.07
2022-10-26T10:42:55.644Z,4.97
2022-10-26T10:45:28.622Z,11.20
2022-10-26T10:48:18.362Z,8.13
2022-10-26T10:50:55.821Z,11.67
2022-10-26T10:53:25.459Z,5.73
2022-10-26T10:56:14.362Z,10.53
2022-10-26T10:59:13.301Z,10.47
2022-10-26T11:01:48.899Z,5.23
2022-10-26T11:04:51.214Z,7.30
2022-10-26T11:07:20.912Z,4.85
2022-10-26T11:09:51.115Z,8.03
2022-10-26T11:12:37.947Z,2.83
2022-10-26T11:15:16.435Z,8.50
2022-10-26T11:18:04.081Z,3.33
2022-10-26T11:20:32.917Z,7.13
2022-10-26T11:23:40.254Z,6.75
2022-10-26T11:26:29.852Z,6.35
2022-10-26T11:29:04.791Z,4.53
2022-10-26T11:31:39.025Z,4.43
2022-10-26T11:34:37.843Z,3.65
2022-10-26T11:37:22.656Z,5.25
2022-10-26T11:40:28.338Z,5.40
2022-10-26T11:43:33.800Z,5.18
2022-10-26T11:46:13.892Z,5.13
2022-10-26T11:49:13.004Z,6.15
2022-10-26T11:52:04.558Z,3.80
2022-10-26T11:54:40.796Z,5.32
2022-10-26T11:57:07.816Z,5.10
2022-10-26T11:59:41.995Z,3.90
2022-10-26T12:02:18.053Z,5.65
2022-10-26T12:04:52.317Z,5.72
2022-10-26T12:07:28.218Z,5.25
2022-10-26T12:09:56.610Z,7.13
2022-10-26T12:12:26.666Z,4.65
2022-10-26T12:15:06.263Z,5.82
2022-10-26T12:18:00.946Z,3.42
2022-10-26T12:20:51.730Z,4.03
2022-10-26T12:23:28.147Z,9.63
2022-10-26T12:26:24.516Z,6.70
2022-10-26T12:29:03.684Z,9.48
2022-10-26T12:31:37.031Z,5.35
2022-10-26T12:34:04.856Z,3.95
2022-10-26T12:36:49.829Z,6.20
2022-10-26T12:39:41.478Z,6.05
2022-10-26T12:42:08.257Z,5.18
2022-10-26T12:44:41.448Z,4.32
2022-10-26T12:47:10.212Z,8.93
2022-10-26T12:49:58.769Z,4.82
2022-10-26T12:52:50.226Z,5.30
2022-10-26T12:55:26.707Z,6.60
2022-10-26T12:58:18.902Z,4.03
2022-10-26T13:01:17.331Z,6.55
2022-10-26T13:04:06.826Z,6.22
2022-10-26T13:06:54.557Z,12.02
2022-10-26T13:09:24.504Z,8.23
2022-10-26T13:11:55.205Z,10.18
2022-10-26T13:14:26.104Z,4.47
2022-10-26T13:16:53.810Z,4.63
2022-10-26T13:19:32.925Z,4.68
2022-10-26T13:22:01.013Z,7.22
2022-10-26T13:24:31.359Z,6.28
2022-10-26T13:27:08.135Z,4.43
2022-10-26T13:30:03.763Z,3.85
2022-10-26T13:32:35.553Z,3.47
2022-10-26T13:35:03.777Z,9.52
2022-10-26T13:37:33.775Z,19.80
2022-10-26T13:40:04.433Z,13.80
2022-10-26T13:43:03.640Z,9.65
2022-10-26T13:45:47.367Z,6.85
2022-10-26T13:48:24.682Z,3.30
2022-10-26T13:53:46.267Z,5.65
2022-10-26T13:56:22.004Z,4.03
2022-10-26T13:59:03.554Z,4.18
2022-10-26T14:01:31.720Z,8.55
2022-10-26T14:03:58.842Z,5.93
2022-10-26T14:06:37.549Z,4.63
2022-10-26T14:09:12.250Z,4.70
2022-10-26T14:11:50.815Z,6.47
2022-10-26T14:14:21.844Z,5.45
2022-10-26T14:16:51.211Z,3.97
2022-10-26T14:19:39.456Z,7.65
2022-10-26T14:22:07.730Z,4.82
2022-10-26T14:24:48.406Z,5.97
2022-10-26T14:27:21.310Z,5.68
2022-10-26T14:30:16.740Z,7.37
2022-10-26T14:32:37.022Z,8.07
2022-10-26T14:35:04.110Z,10.30
2022-10-26T14:37:57.068Z,4.47
2022-10-26T14:40:27.732Z,4.13
2022-10-26T14:42:57.748Z,5.30
2022-10-26T14:45:47.169Z,6.95
2022-10-26T14:48:23.136Z,7.55
2022-10-26T14:51:26.908Z,3.42
2022-10-26T14:54:04.332Z,5.13
2022-10-26T14:56:43.383Z,5.65
2022-10-26T14:59:21.340Z,3.47
2022-10-26T15:01:56.329Z,6.03
2022-10-26T15:04:41.567Z,4.97
2022-10-26T15:07:09.844Z,8.15
2022-10-26T15:09:42.524Z,8.20
2022-10-26T15:12:28.663Z,6.55
2022-10-26T15:14:57.065Z,7.25
2022-10-26T15:17:39.506Z,6.40
2022-10-26T15:20:12.527Z,6.43
2022-10-26T15:22:40.428Z,4.40
2022-10-26T15:25:07.850Z,6.47
2022-10-26T15:27:34.978Z,4.50
2022-10-26T15:30:28.278Z,3.70
2022-10-26T15:32:56.368Z,6.57
2022-10-26T15:35:30.060Z,5.07
2022-10-26T15:37:58.279Z,8.07
2022-10-26T15:40:26.826Z,4.83
2022-10-26T15:42:54.957Z,4.83
2022-10-26T15:45:35.083Z,3.57
2022-10-26T15:48:23.788Z,3.70
2022-10-26T15:50:50.656Z,4.90
2022-10-26T15:53:20.817Z,14.77
2022-10-26T15:55:49.514Z,12.30
2022-10-26T15:58:16.675Z,14.97
2022-10-26T16:00:44.782Z,9.10
2022-10-26T16:03:14.759Z,11.13
2022-10-26T16:05:42.822Z,6.10
2022-10-26T16:08:17.790Z,6.70
2022-10-26T16:10:45.867Z,7.57
2022-10-26T16:13:14.128Z,4.73
2022-10-26T16:15:41.627Z,4.07
2022-10-26T16:18:08.614Z,3.33
2022-10-26T16:20:36.354Z,3.30
2022-10-26T16:23:06.770Z,3.23
2022-10-26T16:25:39.773Z,4.47
2022-10-26T16:28:06.772Z,4.80
2022-10-26T16:30:38.591Z,2.70
2022-10-26T16:33:06.562Z,2.70
2022-10-26T16:35:33.583Z,3.43
2022-10-26T16:38:01.494Z,2.60
2022-10-26T16:40:31.117Z,2.90
2022-10-26T16:42:59.132Z,5.27
2022-10-26T16:45:26.069Z,2.87
2022-10-26T16:47:58.822Z,5.83
2022-10-26T16:50:25.994Z,7.50
2022-10-26T16:52:52.899Z,4.23
2022-10-26T16:55:24.592Z,3.97
2022-10-26T16:57:51.810Z,9.13
2022-10-26T17:00:19.067Z,5.33
2022-10-26T17:02:46.006Z,5.87
2022-10-26T17:05:12.968Z,7.73
2022-10-26T17:07:39.946Z,11.00
2022-10-26T17:10:07.008Z,5.50
2022-10-26T17:12:33.912Z,8.77
2022-10-26T17:15:01.623Z,5.03
2022-10-26T17:17:28.552Z,10.53
2022-10-26T17:19:55.666Z,7.60
2022-10-26T17:22:22.518Z,7.87
2022-10-26T17:24:49.461Z,9.67
2022-10-26T17:27:17.436Z,8.87
2022-10-26T17:29:44.363Z,10.37
2022-10-26T17:32:11.309Z,10.23
2022-10-26T17:34:38.313Z,8.43
2022-10-26T17:37:06.259Z,7.93
2022-10-26T17:39:34.274Z,11.53
2022-10-26T17:42:02.317Z,8.77
2022-10-26T17:44:29.227Z,9.17
2022-10-26T17:46:56.215Z,10.00
2022-10-26T17:49:25.114Z,8.50
2022-10-26T17:51:55.928Z,8.83
2022-10-26T17:54:23.079Z,9.70
2022-10-26T17:56:50.026Z,8.80
2022-10-26T17:59:19.246Z,9.10
2022-10-26T18:01:46.230Z,7.90
2022-10-26T18:04:13.284Z,6.40
2022-10-26T18:06:40.211Z,5.63
2022-10-26T18:09:07.090Z,9.17
2022-10-26T18:11:34.001Z,5.33
2022-10-26T18:14:02.030Z,8.10
2022-10-26T18:16:29.037Z,7.93
2022-10-26T18:19:06.680Z,8.03
2022-10-26T18:21:37.683Z,5.27
2022-10-26T18:24:05.979Z,6.27
2022-10-26T18:26:33.157Z,4.97
2022-10-26T18:29:01.501Z,6.00
2022-10-26T18:31:29.926Z,4.83
2022-10-26T18:34:02.150Z,5.23
2022-10-26T18:36:29.684Z,6.77
2022-10-26T18:38:57.475Z,5.00
2022-10-26T18:41:25.053Z,8.17
2022-10-26T18:43:55.452Z,5.23
2022-10-26T18:46:24.782Z,4.83
2022-10-26T18:48:52.400Z,5.13
2022-10-26T18:51:30.512Z,5.93
2022-10-26T18:53:58.147Z,5.47
2022-10-26T18:56:25.809Z,3.97
2022-10-26T18:58:56.108Z,5.40
2022-10-26T19:01:28.146Z,4.13
2022-10-26T19:04:01.262Z,4.43
2022-10-26T19:06:31.401Z,3.57
2022-10-26T19:08:59.474Z,5.03
2022-10-26T19:11:28.793Z,4.00
2022-10-26T19:13:56.155Z,4.90
2022-10-26T19:16:45.488Z,6.80
2022-10-26T19:19:12.399Z,4.30
2022-10-26T19:21:39.274Z,7.07
2022-10-26T19:24:12.510Z,4.40
2022-10-26T19:26:43.124Z,4.33
2022-10-26T19:29:15.840Z,4.70
2022-10-26T19:31:44.605Z,3.43
2022-10-26T19:34:13.305Z,2.67
2022-10-26T19:36:44.773Z,5.73
2022-10-26T19:39:13.384Z,3.50
2022-10-26T19:41:40.256Z,3.40
2022-10-26T19:44:07.965Z,3.33
2022-10-26T19:46:34.915Z,3.23
2022-10-26T19:49:02.610Z,5.17
2022-10-26T19:51:31.919Z,3.40
2022-10-26T19:54:03.951Z,3.73
2022-10-26T19:56:32.520Z,3.37
2022-10-26T19:59:02.554Z,4.00
2022-10-26T20:01:29.865Z,3.07
2022-10-26T20:03:57.338Z,4.00
2022-10-26T20:06:24.292Z,3.00
2022-10-26T20:08:51.181Z,2.10
2022-10-26T20:11:19.081Z,2.10
2022-10-26T20:13:47.100Z,3.20
2022-10-26T20:16:16.385Z,2.93
2022-10-26T20:18:47.599Z,4.27
2022-10-26T20:21:16.935Z,6.33
2022-10-26T20:23:44.531Z,5.50
2022-10-26T20:26:18.257Z,4.67
2022-10-26T20:28:48.350Z,4.97
2022-10-26T20:31:15.709Z,4.47
2022-10-26T20:33:42.787Z,5.70
2022-10-26T20:36:09.762Z,3.83
2022-10-26T20:38:39.538Z,4.00
2022-10-26T20:41:10.274Z,6.73
2022-10-26T20:43:39.495Z,4.67
2022-10-26T20:46:10.025Z,4.60
2022-10-26T20:48:38.765Z,5.03
2022-10-26T20:53:44.011Z,4.67
2022-10-26T20:56:24.429Z,4.30
2022-10-26T20:58:53.173Z,3.87
2022-10-26T21:01:33.579Z,3.47
2022-10-26T21:04:02.344Z,3.83
2022-10-26T21:06:29.905Z,3.40
2022-10-26T21:08:57.340Z,3.77
2022-10-26T21:11:25.894Z,3.10
2022-10-26T21:13:54.778Z,4.13
2022-10-26T21:18:50.831Z,7.00
2022-10-26T21:21:17.742Z,3.67
2022-10-26T21:23:44.682Z,2.90
2022-10-26T21:26:12.714Z,3.87
2022-10-26T21:28:41.914Z,3.80
2022-10-26T21:31:14.449Z,3.80
2022-10-26T21:33:42.078Z,3.73
2022-10-26T21:36:14.098Z,4.80
2022-10-26T21:38:42.922Z,6.30
2022-10-26T21:41:15.532Z,4.00
2022-10-26T21:43:46.140Z,2.47
2022-10-26T21:46:14.014Z,2.47
2022-10-26T21:48:43.948Z,3.23
2022-10-26T21:51:20.257Z,2.60
2022-10-26T21:53:48.109Z,2.97
2022-10-26T21:56:20.484Z,2.63
2022-10-26T21:58:48.503Z,4.33
2022-10-26T22:01:18.046Z,3.30
2022-10-26T22:03:45.306Z,5.93
2022-10-26T22:06:14.653Z,4.90
2022-10-26T22:08:42.430Z,6.67
2022-10-26T22:11:27.953Z,3.80
2022-10-26T22:13:55.178Z,4.23
2022-10-26T22:16:31.010Z,3.37
2022-10-26T22:19:02.144Z,2.77
2022-10-26T22:21:35.056Z,3.40
2022-10-26T22:24:02.385Z,4.23
2022-10-26T22:26:29.812Z,3.97
2022-10-26T22:28:57.648Z,3.63
2022-10-26T22:31:33.668Z,5.33
2022-10-26T22:34:06.415Z,3.50
2022-10-26T22:36:34.730Z,3.57
2022-10-26T22:39:01.660Z,4.07
2022-10-26T22:41:28.726Z,5.20
2022-10-26T22:43:55.635Z,4.10
2022-10-26T22:46:27.874Z,3.53
2022-10-26T22:48:59.853Z,3.13
2022-10-26T22:51:33.221Z,4.13
2022-10-26T22:54:02.102Z,3.17
2022-10-26T22:56:30.128Z,3.13
2022-10-26T22:58:57.465Z,2.50
2022-10-26T23:01:31.576Z,2.83
2022-10-26T23:03:59.241Z,3.53
2022-10-26T23:06:28.580Z,2.70
2022-10-26T23:08:56.713Z,2.20
2022-10-26T23:11:25.544Z,2.87
2022-10-26T23:13:57.126Z,2.90
2022-10-26T23:16:27.960Z,3.20
2022-10-26T23:18:55.659Z,2.20
2022-10-26T23:23:51.970Z,1.97
2022-10-26T23:26:21.478Z,3.07
2022-10-26T23:28:49.337Z,1.60
2022-10-26T23:31:19.388Z,2.50
2022-10-26T23:33:46.638Z,2.23
2022-10-26T23:36:14.516Z,2.50
2022-10-26T23:38:41.468Z,1.80
2022-10-26T23:41:10.897Z,2.97
2022-10-26T23:43:40.417Z,1.60
2022-10-26T23:46:07.901Z,2.17
2022-10-26T23:48:34.774Z,1.90
2022-10-26T23:51:01.645Z,1.57
2022-10-26T23:53:28.666Z,2.10
2022-10-26T23:55:55.614Z,2.03
2022-10-26T23:58:22.497Z,1.57
